Time;durP1;ratioP1;P1;durP2;ratioP2;P2;SDS_P1;SDS_P2;PMS_P1;PMS_P2;Temp;Humidity;BMP_temperature;BMP_pressure;BME280_temperature;BME280_humidity;BME280_pressure;Samples;Min_cycle;Max_cycle;Signal;HPM_P1;HPM_P2
2023/10/03 00:00:34;;;;;;;4.00;1.25;;;;;;;16.84;nan;61218.38;5011620;28;20247;-63
2023/10/03 00:03:00;;;;;;;0.93;0.90;;;;;;;16.96;nan;61293.88;5011497;28;20179;-63
2023/10/03 00:05:31;;;;;;;1.17;1.10;;;;;;;16.69;nan;61184.53;5011504;28;20175;-63
2023/10/03 00:08:01;;;;;;;1.70;1.20;;;;;;;16.64;nan;61415.63;5011686;28;20176;-62
2023/10/03 00:10:28;;;;;;;1.05;1.05;;;;;;;16.76;nan;61378.19;5011548;28;20246;-63
2023/10/03 00:12:54;;;;;;;1.20;1.00;;;;;;;16.92;nan;61258.94;5011434;28;20202;-63
2023/10/03 00:15:24;;;;;;;1.48;1.38;;;;;;;16.86;nan;61243.88;5011237;28;20226;-63
2023/10/03 00:17:50;;;;;;;2.83;1.27;;;;;;;16.66;nan;61337.94;5011557;28;20176;-63
2023/10/03 00:20:18;;;;;;;1.67;1.25;;;;;;;16.76;nan;61282.72;5011557;28;20172;-64
2023/10/03 00:22:44;;;;;;;1.00;1.00;;;;;;;16.76;nan;61244.03;5011414;28;20208;-63
2023/10/03 00:25:17;;;;;;;1.38;1.17;;;;;;;16.70;nan;61314.06;5011432;28;20180;-63
2023/10/03 00:27:46;;;;;;;2.67;1.40;;;;;;;16.56;nan;61154.38;5011467;28;20536;-64
2023/10/03 00:30:15;;;;;;;1.00;1.00;;;;;;;16.73;nan;61211.72;5011140;28;20773;-63
2023/10/03 00:32:42;;;;;;;1.65;1.27;;;;;;;16.50;nan;61183.72;5011413;28;20254;-63
2023/10/03 00:35:08;;;;;;;1.00;1.00;;;;;;;16.47;nan;61301.53;5011317;28;20251;-63
2023/10/03 00:37:35;;;;;;;1.05;1.02;;;;;;;16.63;nan;61317.06;5011386;28;20642;-64
2023/10/03 00:40:16;;;;;;;1.20;1.10;;;;;;;16.40;nan;61316.81;5011170;28;20590;-63
2023/10/03 00:42:41;;;;;;;1.10;1.08;;;;;;;16.41;nan;61173.56;5011102;28;20182;-63
2023/10/03 00:45:10;;;;;;;1.20;1.20;;;;;;;16.44;nan;61249.16;5011251;28;20172;-62
2023/10/03 00:47:35;;;;;;;1.55;1.45;;;;;;;16.30;nan;61148.28;5011089;28;20566;-62
2023/10/03 00:50:03;;;;;;;4.45;1.67;;;;;;;16.24;nan;61234.84;5010766;28;20194;-62
2023/10/03 00:52:29;;;;;;;1.45;1.30;;;;;;;15.91;nan;61126.03;5011368;28;20195;-64
2023/10/03 00:54:55;;;;;;;0.90;0.90;;;;;;;15.91;nan;61128.63;5012487;28;20646;-63
2023/10/03 00:57:22;;;;;;;1.05;1.05;;;;;;;16.11;nan;61139.72;5014599;28;20232;-62
2023/10/03 00:59:48;;;;;;;1.83;1.27;;;;;;;16.06;nan;61163.00;5014722;28;20338;-62
2023/10/03 01:02:13;;;;;;;1.20;1.10;;;;;;;15.95;nan;61134.59;5014778;28;20200;-62
2023/10/03 01:04:40;;;;;;;1.15;1.10;;;;;;;15.58;nan;61068.28;5013219;28;20303;-63
2023/10/03 01:07:07;;;;;;;1.20;1.10;;;;;;;15.77;nan;61084.50;5014481;28;20177;-62
2023/10/03 01:09:33;;;;;;;1.77;1.00;;;;;;;15.80;nan;61105.94;5014110;28;20171;-62
2023/10/03 01:11:59;;;;;;;1.92;1.40;;;;;;;15.71;nan;61106.09;5014433;28;20671;-62
2023/10/03 01:14:26;;;;;;;1.15;1.15;;;;;;;15.42;nan;61060.50;5014374;28;20180;-62
2023/10/03 01:16:52;;;;;;;0.90;0.90;;;;;;;15.67;nan;61096.44;5014349;28;20223;-63
2023/10/03 01:19:21;;;;;;;1.27;1.17;;;;;;;15.67;nan;61191.16;5013719;28;20607;-62
2023/10/03 01:21:47;;;;;;;1.58;1.42;;;;;;;15.55;nan;61306.31;5016756;28;20199;-62
2023/10/03 01:24:15;;;;;;;1.88;1.45;;;;;;;15.64;nan;61118.78;5026692;28;20527;-63
2023/10/03 01:26:40;;;;;;;1.40;1.30;;;;;;;15.46;nan;61153.09;5014129;28;20172;-63
2023/10/03 01:29:06;;;;;;;1.30;1.20;;;;;;;12.72;nan;62485.78;5026003;28;20535;-63
2023/10/03 01:31:31;;;;;;;1.10;1.10;;;;;;;15.22;nan;61014.81;5033787;28;20199;-62
2023/10/03 01:33:57;;;;;;;1.05;1.05;;;;;;;15.09;nan;61309.47;5033804;28;20206;-62
2023/10/03 01:36:22;;;;;;;1.13;1.13;;;;;;;14.97;nan;61077.84;5033948;28;20183;-63
2023/10/03 01:38:48;;;;;;;1.00;1.00;;;;;;;14.88;nan;61116.56;5033508;28;20233;-62
2023/10/03 01:41:13;;;;;;;0.88;0.88;;;;;;;14.44;nan;61095.78;5033631;28;20194;-63
2023/10/03 01:43:44;;;;;;;1.00;1.00;;;;;;;14.50;nan;60952.91;5033602;28;20179;-62
2023/10/03 01:46:12;;;;;;;1.27;1.17;;;;;;;14.24;nan;61018.72;5033640;28;20198;-62
2023/10/03 01:48:37;;;;;;;2.05;1.10;;;;;;;14.28;nan;61031.47;5032405;28;20495;-61
2023/10/03 01:51:03;;;;;;;1.08;1.08;;;;;;;14.14;nan;61016.28;5033669;28;20188;-63
2023/10/03 01:53:29;;;;;;;2.13;1.33;;;;;;;14.00;nan;60894.66;5033192;28;20168;-63
2023/10/03 01:55:56;;;;;;;1.80;1.17;;;;;;;14.03;nan;61000.75;5033283;28;20670;-63
2023/10/03 01:58:24;;;;;;;1.33;1.23;;;;;;;14.05;nan;60890.00;5033376;28;20551;-62
2023/10/03 02:00:52;;;;;;;1.48;1.27;;;;;;;14.02;nan;60899.44;5031935;28;20179;-62
2023/10/03 02:03:18;;;;;;;1.67;1.23;;;;;;;14.01;nan;60916.88;5033334;28;20187;-62
2023/10/03 02:05:45;;;;;;;1.00;1.00;;;;;;;13.75;nan;60846.56;5032344;28;20182;-62
2023/10/03 02:08:18;;;;;;;0.93;0.90;;;;;;;13.89;nan;60877.69;5032834;28;20194;-63
2023/10/03 02:10:45;;;;;;;2.75;1.50;;;;;;;13.67;nan;60865.81;5033145;28;20199;-62
2023/10/03 02:13:21;;;;;;;1.50;1.17;;;;;;;13.62;nan;60890.97;5033104;28;20217;-62
2023/10/03 02:15:49;;;;;;;1.33;1.25;;;;;;;13.78;nan;60873.03;5032981;28;20163;-62
2023/10/03 02:18:16;;;;;;;0.93;0.93;;;;;;;13.68;nan;61008.09;5032833;28;20156;-63
2023/10/03 02:20:53;;;;;;;1.10;1.10;;;;;;;13.78;nan;60988.56;5032920;28;20182;-62
2023/10/03 02:23:24;;;;;;;1.30;1.10;;;;;;;13.87;nan;60957.59;5033103;28;20175;-62
2023/10/03 02:25:55;;;;;;;1.30;1.20;;;;;;;13.85;nan;60947.09;5032961;28;20195;-62
2023/10/03 02:28:20;;;;;;;1.48;1.38;;;;;;;13.60;nan;61061.25;5032831;28;20191;-62
2023/10/03 02:30:54;;;;;;;1.35;1.23;;;;;;;13.53;nan;61127.78;5032546;28;20250;-63
2023/10/03 02:33:22;;;;;;;1.48;1.38;;;;;;;13.75;nan;60912.75;5032689;28;20171;-62
2023/10/03 02:35:48;;;;;;;1.08;1.05;;;;;;;13.53;nan;61153.44;5032654;28;20654;-63
2023/10/03 02:38:25;;;;;;;1.50;1.40;;;;;;;13.63;nan;60917.78;5032316;28;20175;-62
2023/10/03 02:40:58;;;;;;;1.40;1.30;;;;;;;13.63;nan;60933.19;5032837;28;20183;-63
2023/10/03 02:43:26;;;;;;;1.35;1.15;;;;;;;13.50;nan;60962.72;5032525;28;20182;-62
2023/10/03 02:45:51;;;;;;;1.45;1.35;;;;;;;13.47;nan;60858.72;5032238;28;20604;-62
2023/10/03 02:48:19;;;;;;;1.33;1.23;;;;;;;13.31;nan;60981.81;5032455;28;20259;-62
2023/10/03 02:50:46;;;;;;;1.15;1.15;;;;;;;12.95;nan;60816.22;5032299;28;20199;-63
2023/10/03 02:53:19;;;;;;;1.40;1.30;;;;;;;12.98;nan;60820.13;5032126;28;20176;-62
2023/10/03 02:55:46;;;;;;;1.20;1.20;;;;;;;8.26;nan;60828.97;5032003;28;20645;-62
2023/10/03 02:58:13;;;;;;;1.42;1.33;;;;;;;12.65;nan;60801.00;5032390;28;20223;-63
2023/10/03 03:00:43;;;;;;;1.30;1.20;;;;;;;12.77;nan;60781.16;5032192;28;20171;-62
2023/10/03 03:03:10;;;;;;;1.38;1.27;;;;;;;12.31;nan;60856.09;5032235;28;20180;-63
2023/10/03 03:05:37;;;;;;;1.30;1.20;;;;;;;12.59;nan;60814.75;5032043;28;20199;-62
2023/10/03 03:10:49;;;;;;;1.45;1.20;;;;;;;12.37;nan;60864.84;5032200;28;20221;-63
2023/10/03 03:13:15;;;;;;;1.80;1.70;;;;;;;12.57;nan;60774.63;5032189;28;20174;-63
2023/10/03 03:15:51;;;;;;;1.83;1.73;;;;;;;12.44;nan;60790.22;5032049;28;20171;-63
2023/10/03 03:18:20;;;;;;;9.10;1.30;;;;;;;12.63;nan;60912.03;5032091;28;20201;-64
2023/10/03 03:20:53;;;;;;;1.10;1.10;;;;;;;12.62;nan;60839.19;5031654;28;20186;-64
2023/10/03 03:23:19;;;;;;;1.20;1.20;;;;;;;12.55;nan;60815.94;5021071;28;20180;-63
2023/10/03 03:25:45;;;;;;;1.20;1.10;;;;;;;12.65;nan;60844.56;5012970;28;20294;-64
2023/10/03 03:28:13;;;;;;;1.10;1.10;;;;;;;12.67;nan;60844.25;5027694;28;20238;-63
2023/10/03 03:30:45;;;;;;;0.95;0.95;;;;;;;12.51;nan;60959.47;5012211;28;20181;-64
2023/10/03 03:33:19;;;;;;;1.23;1.13;;;;;;;12.30;nan;60869.81;5021721;28;20551;-65
2023/10/03 03:35:46;;;;;;;1.20;1.20;;;;;;;12.42;nan;60898.66;5031577;28;20179;-62
2023/10/03 03:38:18;;;;;;;1.50;1.40;;;;;;;12.32;nan;60752.25;5031472;28;20203;-63
2023/10/03 03:40:47;;;;;;;1.40;1.30;;;;;;;12.29;nan;60899.41;5020144;28;20227;-62
2023/10/03 03:43:16;;;;;;;1.70;1.60;;;;;;;12.20;nan;60830.94;5010100;28;20567;-63
2023/10/03 03:45:43;;;;;;;1.20;1.10;;;;;;;12.25;nan;60767.41;5003434;28;20234;-63
2023/10/03 03:48:09;;;;;;;1.40;1.30;;;;;;;11.96;nan;60765.56;5010530;28;20266;-62
2023/10/03 03:50:35;;;;;;;1.23;1.13;;;;;;;11.93;nan;60823.59;5009871;28;20619;-62
2023/10/03 03:53:03;;;;;;;1.25;1.23;;;;;;;12.06;nan;60961.13;5010991;28;20180;-64
2023/10/03 03:55:31;;;;;;;1.35;1.25;;;;;;;12.01;nan;60965.72;5026019;28;20564;-63
2023/10/03 03:57:59;;;;;;;1.02;1.02;;;;;;;11.75;nan;60782.91;5010442;28;20292;-63
2023/10/03 04:00:28;;;;;;;1.25;1.17;;;;;;;11.93;nan;60770.44;5009951;28;20212;-63
2023/10/03 04:02:57;;;;;;;1.10;1.10;;;;;;;11.89;nan;60716.75;5009799;28;20195;-62
2023/10/03 04:05:23;;;;;;;1.40;1.30;;;;;;;11.78;nan;60720.31;5010157;28;20176;-64
2023/10/03 04:07:48;;;;;;;1.20;1.15;;;;;;;11.76;nan;60707.84;5010449;28;20670;-63
2023/10/03 04:10:14;;;;;;;2.65;1.70;;;;;;;11.82;nan;60701.78;5011125;28;20187;-62
2023/10/03 04:12:43;;;;;;;1.40;1.30;;;;;;;12.03;nan;60752.38;5028678;28;20548;-62
2023/10/03 04:15:16;;;;;;;1.45;1.35;;;;;;;11.90;nan;60850.94;5011185;28;20545;-63
2023/10/03 04:17:46;;;;;;;1.70;1.15;;;;;;;12.15;nan;60781.22;5019045;28;20262;-64
2023/10/03 04:22:50;;;;;;;2.20;1.90;;;;;;;11.91;nan;60839.28;5030966;28;20182;-63
2023/10/03 04:25:20;;;;;;;1.00;1.00;;;;;;;11.93;nan;60757.63;5010684;28;20181;-62
2023/10/03 04:27:51;;;;;;;2.08;1.30;;;;;;;11.74;nan;60871.91;5025744;28;20253;-66
2023/10/03 04:30:19;;;;;;;1.05;1.05;;;;;;;11.76;nan;60886.94;5013194;28;20169;-63
2023/10/03 04:32:47;;;;;;;1.30;1.20;;;;;;;11.95;nan;60761.88;5025543;28;20669;-62
2023/10/03 04:35:13;;;;;;;1.00;1.00;;;;;;;11.96;nan;60760.44;5034573;28;20548;-63
2023/10/03 04:37:43;;;;;;;1.25;1.20;;;;;;;11.77;nan;60739.09;5014954;28;20545;-66
2023/10/03 04:40:15;;;;;;;1.48;1.38;;;;;;;11.98;nan;60760.13;5003022;28;20173;-65
2023/10/03 04:42:44;;;;;;;1.67;1.58;;;;;;;12.05;nan;60803.28;5004304;28;20291;-64
2023/10/03 04:45:11;;;;;;;1.52;1.42;;;;;;;12.19;nan;60786.28;5004086;28;20172;-65
2023/10/03 04:47:41;;;;;;;1.50;1.40;;;;;;;12.24;nan;60796.47;5004227;28;20234;-64
2023/10/03 04:50:08;;;;;;;1.48;1.38;;;;;;;12.29;nan;60779.59;5003231;28;20208;-65
2023/10/03 04:52:33;;;;;;;1.65;1.55;;;;;;;12.08;nan;60914.72;5004774;28;20271;-65
2023/10/03 04:54:58;;;;;;;1.77;1.35;;;;;;;12.27;nan;60825.44;5004336;28;20264;-65
2023/10/03 04:57:27;;;;;;;1.73;1.63;;;;;;;12.14;nan;60928.59;5009235;28;20298;-64
2023/10/03 05:00:01;;;;;;;1.65;1.55;;;;;;;12.20;nan;60933.38;5011866;28;20176;-66
2023/10/03 05:02:28;;;;;;;1.63;1.45;;;;;;;12.44;nan;60906.03;5033580;28;20268;-64
2023/10/03 05:04:54;;;;;;;1.40;1.35;;;;;;;12.42;nan;60928.84;5029998;28;20180;-64
2023/10/03 05:07:20;;;;;;;1.55;1.45;;;;;;;12.29;nan;60756.00;5014683;28;20187;-65
2023/10/03 05:09:45;;;;;;;1.33;1.25;;;;;;;12.52;nan;60924.72;5013729;28;20176;-64
2023/10/03 05:12:10;;;;;;;1.20;1.15;;;;;;;12.78;nan;60811.03;5014129;28;20227;-64
2023/10/03 05:14:43;;;;;;;1.13;1.13;;;;;;;12.90;nan;60825.97;5013873;28;20199;-64
2023/10/03 05:17:08;;;;;;;1.33;1.23;;;;;;;12.80;nan;60931.19;5013984;28;20172;-64
2023/10/03 05:19:36;;;;;;;1.33;1.23;;;;;;;13.05;nan;60817.19;5012804;28;20212;-65
2023/10/03 05:22:03;;;;;;;1.83;1.17;;;;;;;12.99;nan;60798.19;5013535;28;20245;-62
2023/10/03 05:24:31;;;;;;;1.40;1.30;;;;;;;13.23;nan;60879.03;5014892;28;20188;-63
2023/10/03 05:26:56;;;;;;;1.00;1.00;;;;;;;13.19;nan;60912.44;5028941;28;20215;-64
2023/10/03 05:29:22;;;;;;;2.13;1.75;;;;;;;13.06;nan;61011.19;5013953;28;21082;-64
2023/10/03 05:31:48;;;;;;;2.13;1.83;;;;;;;13.41;nan;60928.94;5023221;28;20243;-64
2023/10/03 05:34:13;;;;;;;1.20;1.10;;;;;;;13.36;nan;60993.16;5033680;28;20310;-64
2023/10/03 05:36:39;;;;;;;1.95;1.45;;;;;;;13.03;nan;60991.84;5016390;28;20581;-63
2023/10/03 05:39:11;;;;;;;1.52;1.42;;;;;;;13.32;nan;60850.09;5005073;28;20548;-63
2023/10/03 05:41:40;;;;;;;1.45;1.20;;;;;;;13.40;nan;60863.69;5012402;28;20208;-64
2023/10/03 05:44:12;;;;;;;1.80;1.70;;;;;;;13.54;nan;60943.56;5013822;28;20172;-64
2023/10/03 05:46:45;;;;;;;1.73;1.30;;;;;;;13.79;nan;60937.78;5011906;28;20507;-63
2023/10/03 05:49:10;;;;;;;1.17;1.10;;;;;;;13.72;nan;60881.69;5011487;28;20160;-63
2023/10/03 05:51:36;;;;;;;1.83;1.73;;;;;;;11.82;nan;60845.09;5011460;28;20210;-64
2023/10/03 05:54:05;;;;;;;1.52;1.40;;;;;;;14.03;nan;60916.56;5009693;28;20183;-64
2023/10/03 05:56:31;;;;;;;1.58;1.42;;;;;;;14.02;nan;60948.81;5010932;28;20220;-63
2023/10/03 05:58:59;;;;;;;1.35;1.35;;;;;;;13.86;nan;61079.16;5011418;28;20183;-63
2023/10/03 06:01:24;;;;;;;1.63;1.52;;;;;;;14.10;nan;60985.53;5012941;28;20226;-64
2023/10/03 06:03:50;;;;;;;1.65;1.55;;;;;;;13.92;nan;60988.91;5013418;28;20172;-63
2023/10/03 06:06:15;;;;;;;1.65;1.55;;;;;;;14.16;nan;60994.84;5013708;28;20214;-62
2023/10/03 06:08:41;;;;;;;1.25;1.15;;;;;;;14.16;nan;60990.25;5013409;28;20180;-64
2023/10/03 06:11:06;;;;;;;1.52;1.20;;;;;;;14.22;nan;61237.38;5013928;28;20191;-63
2023/10/03 06:13:31;;;;;;;1.92;1.50;;;;;;;14.34;nan;61004.25;5013538;28;20168;-63
2023/10/03 06:16:00;;;;;;;3.33;1.98;;;;;;;14.29;nan;61027.44;5013567;28;20184;-63
2023/10/03 06:18:29;;;;;;;1.20;1.20;;;;;;;14.53;nan;60974.84;5013668;28;20183;-63
2023/10/03 06:20:56;;;;;;;0.98;0.98;;;;;;;15.01;nan;61100.34;5013330;28;20220;-64
2023/10/03 06:23:22;;;;;;;8.57;1.65;;;;;;;15.17;nan;61117.25;5013650;28;20179;-64
2023/10/03 06:25:47;;;;;;;1.30;1.20;;;;;;;;;;5014214;28;20179;-63
2023/10/03 06:28:12;;;;;;;2.20;1.67;;;;;;;15.68;nan;61141.31;5013768;28;20654;-63
2023/10/03 06:30:38;;;;;;;1.38;1.27;;;;;;;15.82;nan;61177.16;5013204;28;20628;-63
2023/10/03 06:33:06;;;;;;;1.77;1.48;;;;;;;15.79;nan;61119.69;5013057;28;20168;-63
2023/10/03 06:35:32;;;;;;;1.15;1.15;;;;;;;15.97;nan;61178.63;5013024;28;20333;-64
2023/10/03 06:37:57;;;;;;;1.50;1.40;;;;;;;16.21;nan;61189.69;5013242;28;20679;-64
2023/10/03 06:40:23;;;;;;;3.22;1.45;;;;;;;16.30;nan;61192.09;5013109;28;20569;-63
2023/10/03 06:42:48;;;;;;;2.75;1.90;;;;;;;16.34;nan;61248.72;5013189;28;20172;-63
2023/10/03 06:45:14;;;;;;;1.63;1.52;;;;;;;16.47;nan;61334.47;5013152;28;20509;-63
2023/10/03 06:47:39;;;;;;;2.25;2.05;;;;;;;16.78;nan;61271.53;5012987;28;20251;-63
2023/10/03 06:50:06;;;;;;;1.58;1.45;;;;;;;16.76;nan;61279.56;5012725;28;20310;-64
2023/10/03 06:52:33;;;;;;;3.40;1.85;;;;;;;16.89;nan;61273.03;5011500;28;20573;-63
2023/10/03 06:54:58;;;;;;;3.28;1.40;;;;;;;16.90;nan;61277.31;5012518;28;20222;-63
2023/10/03 06:57:24;;;;;;;1.73;1.63;;;;;;;16.87;nan;61219.19;5012389;28;20318;-63
2023/10/03 06:59:50;;;;;;;1.30;1.20;;;;;;;17.08;nan;61431.31;5012748;28;20621;-63
2023/10/03 07:02:15;;;;;;;2.65;1.48;;;;;;;17.24;nan;61307.44;5012286;28;20682;-63
2023/10/03 07:04:40;;;;;;;1.23;1.17;;;;;;;17.19;nan;61410.78;5012765;28;20172;-64
2023/10/03 07:07:08;;;;;;;2.50;1.30;;;;;;;17.48;nan;61308.69;5012857;28;20200;-64
2023/10/03 07:09:33;;;;;;;2.70;1.23;;;;;;;17.72;nan;61407.03;5012377;28;20176;-63
2023/10/03 07:11:59;;;;;;;1.50;1.40;;;;;;;17.85;nan;61380.97;5012597;28;20514;-64
2023/10/03 07:14:24;;;;;;;2.97;1.42;;;;;;;17.87;nan;61333.56;5012399;28;20212;-64
2023/10/03 07:16:50;;;;;;;3.80;1.52;;;;;;;18.03;nan;61507.31;5012565;28;20176;-63
2023/10/03 07:19:15;;;;;;;1.73;1.20;;;;;;;18.22;nan;61424.81;5012807;28;20189;-63
2023/10/03 07:21:44;;;;;;;3.03;1.67;;;;;;;17.10;nan;61416.09;5012311;28;20207;-64
2023/10/03 07:24:09;;;;;;;1.17;1.08;;;;;;;18.57;nan;61414.16;5012446;28;20176;-64
2023/10/03 07:26:36;;;;;;;1.80;1.42;;;;;;;18.73;nan;61531.13;5012417;28;20201;-63
2023/10/03 07:29:02;;;;;;;4.78;1.38;;;;;;;18.64;nan;61458.84;5012130;28;20647;-63
2023/10/03 07:31:29;;;;;;;1.52;1.23;;;;;;;18.67;nan;61565.19;5012378;28;20172;-63
2023/10/03 07:33:56;;;;;;;2.15;1.75;;;;;;;18.80;nan;61481.56;5012511;28;20650;-63
2023/10/03 07:36:22;;;;;;;0.90;0.90;;;;;;;19.02;nan;61475.38;5010890;28;20602;-64
2023/10/03 07:38:47;;;;;;;4.45;1.63;;;;;;;19.19;nan;61523.09;5012052;28;20271;-64
2023/10/03 07:41:13;;;;;;;1.77;1.13;;;;;;;19.34;nan;61526.56;5012028;28;20199;-64
2023/10/03 07:43:47;;;;;;;2.55;1.65;;;;;;;19.49;nan;61568.91;5012382;28;20172;-63
2023/10/03 07:46:19;;;;;;;1.95;1.70;;;;;;;19.46;nan;61565.53;5012377;28;20167;-63
2023/10/03 07:48:44;;;;;;;2.85;1.90;;;;;;;19.72;nan;61545.72;5011817;28;20234;-63
2023/10/03 07:51:15;;;;;;;1.20;1.10;;;;;;;19.70;nan;61748.81;5012357;28;20565;-64
2023/10/03 07:53:41;;;;;;;0.82;0.80;;;;;;;19.88;nan;61560.69;5011907;28;20530;-64
2023/10/03 07:56:25;;;;;;;1.35;1.25;;;;;;;20.30;nan;61787.31;5011770;28;20179;-64
2023/10/03 07:58:54;;;;;;;2.08;1.38;;;;;;;20.16;nan;61615.75;5011328;28;20176;-65
2023/10/03 08:01:24;;;;;;;1.30;1.02;;;;;;;20.41;nan;61638.31;5011596;28;20215;-64
2023/10/03 08:03:50;;;;;;;1.58;1.33;;;;;;;20.63;nan;61671.03;5011800;28;20557;-64
2023/10/03 08:06:15;;;;;;;1.23;1.13;;;;;;;20.42;nan;61691.94;5015834;28;20230;-63
2023/10/03 08:08:41;;;;;;;1.00;0.90;;;;;;;20.45;nan;61821.94;5015903;28;20207;-64
2023/10/03 08:11:07;;;;;;;10.15;1.95;;;;;;;20.81;nan;61821.28;5015865;28;20222;-64
2023/10/03 08:13:38;;;;;;;1.15;1.05;;;;;;;21.03;nan;61708.03;5016205;28;20171;-65
2023/10/03 08:16:05;;;;;;;1.38;1.27;;;;;;;20.86;nan;61691.34;5016270;28;20543;-65
2023/10/03 08:18:35;;;;;;;1.20;0.95;;;;;;;20.57;nan;61685.03;5015724;28;20180;-64
2023/10/03 08:21:03;;;;;;;1.77;1.30;;;;;;;20.95;nan;61732.72;5015802;28;20227;-63
2023/10/03 08:23:32;;;;;;;1.30;1.20;;;;;;;20.96;nan;61900.69;5015469;28;20207;-64
2023/10/03 08:26:02;;;;;;;1.50;1.40;;;;;;;21.07;nan;61801.47;5015984;28;20259;-65
2023/10/03 08:28:29;;;;;;;1.20;1.10;;;;;;;21.25;nan;61704.41;5015475;28;20546;-63
2023/10/03 08:30:56;;;;;;;1.38;1.27;;;;;;;21.43;nan;61761.22;5015881;28;20206;-64
2023/10/03 08:33:22;;;;;;;1.85;1.38;;;;;;;21.43;nan;61747.66;5015362;28;20207;-64
2023/10/03 08:35:48;;;;;;;2.22;1.48;;;;;;;21.44;nan;61785.19;5015482;28;20164;-64
2023/10/03 08:38:14;;;;;;;1.45;1.27;;;;;;;21.63;nan;61772.38;5015641;28;20176;-64
2023/10/03 08:40:49;;;;;;;1.55;1.40;;;;;;;21.72;nan;61757.16;5015478;28;20338;-64
2023/10/03 08:43:25;;;;;;;1.98;1.30;;;;;;;21.76;nan;62096.66;5015158;28;20171;-63
2023/10/03 08:45:55;;;;;;;1.00;0.90;;;;;;;21.79;nan;61947.19;5013761;28;20258;-63
2023/10/03 08:48:26;;;;;;;1.20;1.10;;;;;;;21.92;nan;61979.59;5014653;28;20172;-64
2023/10/03 08:50:56;;;;;;;1.27;1.17;;;;;;;21.96;nan;61987.34;5015085;28;20175;-64
2023/10/03 08:53:26;;;;;;;1.52;1.33;;;;;;;21.90;nan;61860.84;5014738;28;20556;-65
2023/10/03 08:56:05;;;;;;;3.50;1.27;;;;;;;19.90;nan;61662.03;5015079;28;20173;-64
2023/10/03 08:58:31;;;;;;;1.65;1.40;;;;;;;21.63;nan;61990.84;5014520;28;20156;-64
2023/10/03 09:01:01;;;;;;;1.23;1.08;;;;;;;21.58;nan;61788.66;5014234;28;20693;-64
2023/10/03 09:03:47;;;;;;;1.00;1.00;;;;;;;21.49;nan;61790.88;5014180;28;20161;-64
2023/10/03 09:06:23;;;;;;;1.05;0.93;;;;;;;21.69;nan;61888.44;5014661;28;20172;-64
2023/10/03 09:09:08;;;;;;;1.25;1.05;;;;;;;21.92;nan;61839.69;5014801;28;20175;-63
2023/10/03 09:11:37;;;;;;;1.10;1.00;;;;;;;22.04;nan;61876.19;5014443;28;20176;-64
2023/10/03 09:14:07;;;;;;;1.30;1.20;;;;;;;21.93;nan;61848.63;5014564;28;20195;-64
2023/10/03 09:16:38;;;;;;;1.55;1.10;;;;;;;22.15;nan;61849.63;5014526;28;20258;-63
2023/10/03 09:19:23;;;;;;;1.23;0.90;;;;;;;21.89;nan;61955.94;5014473;28;20182;-64
2023/10/03 09:21:57;;;;;;;1.30;1.00;;;;;;;21.93;nan;61876.69;5014188;28;20192;-64
2023/10/03 09:24:25;;;;;;;0.90;0.90;;;;;;;22.05;nan;61866.91;5014330;28;20175;-63
2023/10/03 09:26:54;;;;;;;1.63;1.35;;;;;;;22.03;nan;61979.72;5014330;28;20192;-64
2023/10/03 09:29:31;;;;;;;1.30;1.08;;;;;;;21.97;nan;61954.66;5014499;28;20164;-64
2023/10/03 09:31:58;;;;;;;1.50;1.27;;;;;;;22.13;nan;62073.81;4998172;28;20179;-63
2023/10/03 09:34:32;;;;;;;1.27;1.00;;;;;;;22.14;nan;62084.78;5013941;28;20176;-63
2023/10/03 09:37:04;;;;;;;2.10;1.00;;;;;;;21.71;nan;61958.31;5013868;28;20169;-65
2023/10/03 09:39:30;;;;;;;0.90;0.85;;;;;;;21.98;nan;61864.72;5013497;28;20250;-64
2023/10/03 09:41:57;;;;;;;1.40;1.27;;;;;;;21.85;nan;61838.97;5030524;28;20689;-64
2023/10/03 09:44:32;;;;;;;2.22;1.15;;;;;;;21.76;nan;61954.19;5014480;28;20230;-63
2023/10/03 09:47:00;;;;;;;1.48;1.38;;;;;;;21.98;nan;61830.91;5019194;28;20233;-64
2023/10/03 09:49:36;;;;;;;1.00;0.95;;;;;;;21.77;nan;61820.06;5033393;28;20202;-63
2023/10/03 09:52:04;;;;;;;2.70;0.95;;;;;;;;;;5016253;28;20183;-64
2023/10/03 09:54:33;;;;;;;1.08;1.00;;;;;;;22.18;nan;61847.28;5027773;28;20180;-64
2023/10/03 09:57:00;;;;;;;1.85;1.30;;;;;;;22.12;nan;61832.66;5013261;28;20224;-63
2023/10/03 09:59:27;;;;;;;2.17;1.17;;;;;;;22.23;nan;61866.53;5024489;28;20190;-64
2023/10/03 10:01:56;;;;;;;3.20;1.30;;;;;;;22.24;nan;62034.25;5033030;28;20202;-64
2023/10/03 10:04:24;;;;;;;0.85;0.85;;;;;;;22.42;nan;61999.53;5033219;28;20182;-65
2023/10/03 10:07:33;;;;;;;1.08;0.98;;;;;;;22.39;nan;61884.13;5033225;28;20179;-63
2023/10/03 10:10:07;;;;;;;1.40;1.30;;;;;;;22.88;nan;62025.84;5033066;28;20163;-66
2023/10/03 10:12:37;;;;;;;4.75;1.35;;;;;;;22.81;nan;61970.97;5033125;28;20164;-65
2023/10/03 10:17:55;;;;;;;3.20;1.20;;;;;;;22.71;nan;61977.81;5014365;28;20191;-65
2023/10/03 10:20:32;;;;;;;0.98;0.93;;;;;;;23.04;nan;62040.28;5012766;28;20655;-64
2023/10/03 10:25:43;;;;;;;5.30;1.42;;;;;;;22.40;nan;61885.28;5011930;28;20302;-64
2023/10/03 10:28:20;;;;;;;2.03;1.15;;;;;;;22.42;nan;61882.34;5011804;28;20169;-64
2023/10/03 10:31:15;;;;;;;0.93;0.93;;;;;;;22.31;nan;61924.53;5012187;28;20226;-64
2023/10/03 10:33:42;;;;;;;1.15;1.05;;;;;;;22.01;nan;61961.81;5009753;28;20203;-64
2023/10/03 10:36:12;;;;;;;1.50;1.17;;;;;;;22.45;nan;62167.56;5012823;28;20168;-63
2023/10/03 10:38:42;;;;;;;1.38;1.20;;;;;;;22.93;nan;62025.75;5013184;28;20639;-65
2023/10/03 10:41:17;;;;;;;1.10;1.00;;;;;;;23.05;nan;62039.41;5012492;28;20942;-64
2023/10/03 10:44:05;;;;;;;1.95;1.10;;;;;;;22.81;nan;62012.09;5011632;28;20172;-65
2023/10/03 10:46:45;;;;;;;1.90;1.25;;;;;;;22.37;nan;61892.84;5011160;28;20176;-63
2023/10/03 10:49:36;;;;;;;1.33;1.20;;;;;;;22.74;nan;62002.09;5011102;28;20164;-64
2023/10/03 10:52:06;;;;;;;1.40;1.20;;;;;;;22.83;nan;61941.41;5010958;28;20706;-64
2023/10/03 10:54:33;;;;;;;1.50;1.10;;;;;;;22.87;nan;62073.66;5010982;28;20175;-64
2023/10/03 10:57:06;;;;;;;1.52;1.13;;;;;;;22.99;nan;61946.56;5011368;28;20216;-65
2023/10/03 10:59:40;;;;;;;2.33;1.60;;;;;;;22.81;nan;62085.63;5011748;28;20176;-64
2023/10/03 11:02:16;;;;;;;1.90;1.25;;;;;;;23.11;nan;61964.84;5013224;28;20314;-65
2023/10/03 11:04:41;;;;;;;1.33;1.23;;;;;;;23.27;nan;62027.38;5013033;28;20168;-65
2023/10/03 11:07:07;;;;;;;1.45;1.33;;;;;;;23.43;nan;61998.63;5012944;28;20241;-65
2023/10/03 11:09:38;;;;;;;1.40;1.00;;;;;;;23.53;nan;62101.34;5012829;28;20549;-64
2023/10/03 11:12:06;;;;;;;1.20;1.10;;;;;;;23.54;nan;62023.63;5012513;28;20180;-66
2023/10/03 11:14:33;;;;;;;2.10;1.60;;;;;;;23.62;nan;62056.22;5012996;28;20266;-64
2023/10/03 11:17:00;;;;;;;1.10;1.00;;;;;;;23.54;nan;62021.03;5012811;28;20196;-63
2023/10/03 11:19:27;;;;;;;2.13;1.30;;;;;;;23.61;nan;62083.78;5012613;28;20172;-64
2023/10/03 11:21:53;;;;;;;2.38;1.40;;;;;;;23.65;nan;61999.63;5012059;28;20281;-64
2023/10/03 11:24:19;;;;;;;2.08;1.25;;;;;;;23.90;nan;62168.44;5012799;28;20591;-64
2023/10/03 11:26:45;;;;;;;2.00;1.50;;;;;;;23.78;nan;62134.44;5012310;28;20168;-68
2023/10/03 11:29:10;;;;;;;2.35;1.15;;;;;;;23.62;nan;62033.31;5012808;28;20520;-65
2023/10/03 11:31:40;;;;;;;3.72;1.23;;;;;;;23.58;nan;62265.59;5012424;28;20180;-67
2023/10/03 11:34:06;;;;;;;2.35;1.45;;;;;;;23.47;nan;62036.53;5012633;28;20535;-67
2023/10/03 11:36:42;;;;;;;1.80;1.23;;;;;;;23.19;nan;62000.03;5012352;28;20179;-66
2023/10/03 11:39:10;;;;;;;3.60;1.77;;;;;;;23.06;nan;61927.88;5012240;28;20172;-66
2023/10/03 11:41:38;;;;;;;1.52;1.25;;;;;;;23.35;nan;62013.00;5012244;28;20235;-64
2023/10/03 11:44:06;;;;;;;3.25;1.40;;;;;;;23.37;nan;62109.16;5012425;28;20172;-67
2023/10/03 11:46:36;;;;;;;1.23;0.93;;;;;;;23.77;nan;62086.34;5012719;28;20187;-64
2023/10/03 11:49:03;;;;;;;1.85;1.27;;;;;;;23.38;nan;61972.09;5012492;28;20172;-64
2023/10/03 11:51:31;;;;;;;1.88;1.30;;;;;;;23.54;nan;62026.81;5011942;28;20650;-65
2023/10/03 11:53:57;;;;;;;2.17;1.30;;;;;;;23.66;nan;62074.41;5012282;28;20164;-64
2023/10/03 11:56:22;;;;;;;3.05;2.03;;;;;;;23.41;nan;62056.34;5012037;28;20578;-64
2023/10/03 11:58:48;;;;;;;1.50;1.40;;;;;;;23.55;nan;61994.03;5012144;28;20169;-66
2023/10/03 12:01:16;;;;;;;1.00;0.88;;;;;;;23.53;nan;62030.91;5012810;28;20196;-67
2023/10/03 12:03:42;;;;;;;2.00;1.73;;;;;;;23.18;nan;61968.16;5012438;28;20168;-64
2023/10/03 12:06:08;;;;;;;1.80;1.20;;;;;;;23.17;nan;62109.84;5012057;28;20654;-66
2023/10/03 12:08:36;;;;;;;2.97;1.90;;;;;;;23.45;nan;62029.03;5010956;28;20599;-66